Time;durP1;ratioP1;P1;durP2;ratioP2;P2;SDS_P1;SDS_P2;PMS_P1;PMS_P2;Temp;Humidity;BMP_temperature;BMP_pressure;BME280_temperature;BME280_humidity;BME280_pressure;Samples;Min_cycle;Max_cycle;Signal;HPM_P1;HPM_P2
2024/04/04 00:00:41;;;;;;;;;5.00;4.33;;;;;;;;5080760;28;45366;-76
2024/04/04 00:03:06;;;;;;;;;4.67;4.00;;;;;;;;5079201;28;45991;-75
2024/04/04 00:05:32;;;;;;;;;3.50;2.75;;;;;;;;5080755;28;45511;-75
2024/04/04 00:07:57;;;;;;;;;6.00;3.00;;;;;;;;5080446;28;45207;-75
2024/04/04 00:10:23;;;;;;;;;5.00;2.00;;;;;;;;5079244;28;47298;-75
2024/04/04 00:12:48;;;;;;;;;2.67;1.67;;;;;;;;5080800;28;45274;-74
2024/04/04 00:15:14;;;;;;;;;5.00;5.00;;;;;;;;5080710;28;45232;-75
2024/04/04 00:17:39;;;;;;;;;6.33;3.33;;;;;;;;5080498;28;45251;-75
2024/04/04 00:20:04;;;;;;;;;3.00;3.00;;;;;;;;5080214;28;45654;-74
2024/04/04 00:22:30;;;;;;;;;4.00;3.67;;;;;;;;5080600;28;45338;-74
2024/04/04 00:24:55;;;;;;;;;3.33;1.67;;;;;;;;5080614;28;45245;-75
2024/04/04 00:27:20;;;;;;;;;2.33;2.33;;;;;;;;5080202;28;45314;-75
2024/04/04 00:29:45;;;;;;;;;2.67;2.67;;;;;;;;5080542;28;46153;-75
2024/04/04 00:32:10;;;;;;;;;3.75;2.25;;;;;;;;5080513;28;45220;-74
2024/04/04 00:34:35;;;;;;;;;6.33;3.67;;;;;;;;5078350;28;45445;-75
2024/04/04 00:37:02;;;;;;;;;5.00;5.00;;;;;;;;5079065;28;47194;-74
2024/04/04 00:39:27;;;;;;;;;5.75;3.25;;;;;;;;5078363;28;48271;-75
2024/04/04 00:41:52;;;;;;;;;4.00;3.00;;;;;;;;5079091;28;45636;-74
2024/04/04 00:44:17;;;;;;;;;5.67;5.33;;;;;;;;5080383;28;45317;-75
2024/04/04 00:46:43;;;;;;;;;7.00;4.00;;;;;;;;5078735;28;47117;-75
2024/04/04 00:49:08;;;;;;;;;5.33;3.33;;;;;;;;5080134;28;45392;-76
2024/04/04 00:51:33;;;;;;;;;5.00;5.00;;;;;;;;5080129;28;45341;-75
2024/04/04 00:53:59;;;;;;;;;0.00;0.00;;;;;;;;5079724;28;45291;-75
2024/04/04 00:56:24;;;;;;;;;6.00;5.00;;;;;;;;5079991;28;45572;-75
2024/04/04 00:58:50;;;;;;;;;8.67;4.00;;;;;;;;5100112;27;45350;-75
2024/04/04 01:01:15;;;;;;;;;3.00;3.00;;;;;;;;5096261;27;45244;-75
2024/04/04 01:03:41;;;;;;;;;5.00;3.33;;;;;;;;5080043;28;45326;-75
2024/04/04 01:06:06;;;;;;;;;5.67;4.00;;;;;;;;5078144;28;45956;-75
2024/04/04 01:08:32;;;;;;;;;2.67;2.00;;;;;;;;5079781;28;46063;-76
2024/04/04 01:10:57;;;;;;;;;2.00;2.00;;;;;;;;5079897;28;45309;-75
2024/04/04 01:13:22;;;;;;;;;6.67;4.67;;;;;;;;5079042;28;45475;-75
2024/04/04 01:15:47;;;;;;;;;4.25;2.50;;;;;;;;5077064;28;47035;-75
2024/04/04 01:18:13;;;;;;;;;2.00;2.00;;;;;;;;5079237;28;46974;-74
2024/04/04 01:20:38;;;;;;;;;3.00;3.00;;;;;;;;5078232;28;45273;-75
2024/04/04 01:23:03;;;;;;;;;2.25;2.25;;;;;;;;5079665;28;45228;-75
2024/04/04 01:25:28;;;;;;;;;2.25;2.25;;;;;;;;5080144;28;45208;-75
2024/04/04 01:27:53;;;;;;;;;4.67;4.67;;;;;;;;5078198;28;47190;-75
2024/04/04 01:30:19;;;;;;;;;3.00;2.00;;;;;;;;5080494;28;45212;-75
2024/04/04 01:32:44;;;;;;;;;5.00;4.00;;;;;;;;5081797;28;45400;-75
2024/04/04 01:35:09;;;;;;;;;3.00;3.00;;;;;;;;5082795;28;45211;-75
2024/04/04 01:37:35;;;;;;;;;5.00;2.33;;;;;;;;5082920;28;45345;-76
2024/04/04 01:40:00;;;;;;;;;3.75;3.75;;;;;;;;5081996;28;45378;-75
2024/04/04 01:42:25;;;;;;;;;3.00;3.00;;;;;;;;5083460;28;45249;-74
2024/04/04 01:44:51;;;;;;;;;5.67;4.00;;;;;;;;5081750;28;45971;-75
2024/04/04 01:47:16;;;;;;;;;2.67;1.33;;;;;;;;5081433;28;48307;-74
2024/04/04 01:49:41;;;;;;;;;1.00;1.00;;;;;;;;5082992;28;45362;-74
2024/04/04 01:52:06;;;;;;;;;2.00;2.00;;;;;;;;5081997;28;45369;-75
2024/04/04 01:54:31;;;;;;;;;4.33;3.00;;;;;;;;5082558;28;45501;-75
2024/04/04 01:56:57;;;;;;;;;2.67;2.67;;;;;;;;5085787;27;47726;-74
2024/04/04 01:59:22;;;;;;;;;3.67;2.67;;;;;;;;5102081;27;45269;-74
2024/04/04 02:01:47;;;;;;;;;5.00;4.00;;;;;;;;5103947;27;45227;-75
2024/04/04 02:04:12;;;;;;;;;4.67;4.00;;;;;;;;5103155;27;46064;-75
2024/04/04 02:06:38;;;;;;;;;2.67;2.67;;;;;;;;5102906;27;45413;-75
2024/04/04 02:09:04;;;;;;;;;2.67;2.67;;;;;;;;5103313;27;45396;-75
2024/04/04 02:11:29;;;;;;;;;4.00;2.67;;;;;;;;5102348;27;45410;-75
2024/04/04 02:13:55;;;;;;;;;2.00;2.00;;;;;;;;5102792;27;46417;-74
2024/04/04 02:16:23;;;;;;;;;2.00;1.00;;;;;;;;5102484;27;47310;-74
2024/04/04 02:18:48;;;;;;;;;4.67;4.00;;;;;;;;5103750;27;45239;-75
2024/04/04 02:21:14;;;;;;;;;2.75;2.75;;;;;;;;5102011;27;45525;-74
2024/04/04 02:23:39;;;;;;;;;3.00;2.67;;;;;;;;5102776;27;45352;-74
2024/04/04 02:26:04;;;;;;;;;4.33;3.00;;;;;;;;5101906;27;48583;-75
2024/04/04 02:28:29;;;;;;;;;3.67;3.67;;;;;;;;5103333;27;45270;-74
2024/04/04 02:30:54;;;;;;;;;4.25;3.25;;;;;;;;5105325;27;45310;-74
2024/04/04 02:33:20;;;;;;;;;4.50;3.50;;;;;;;;5101439;27;46012;-74
2024/04/04 02:35:54;;;;;;;;;6.00;2.67;;;;;;;;5098737;27;48435;-74
2024/04/04 02:38:21;;;;;;;;;7.00;2.33;;;;;;;;5083857;28;45347;-75
2024/04/04 02:40:46;;;;;;;;;3.00;2.00;;;;;;;;5081317;27;45256;-75
2024/04/04 02:43:11;;;;;;;;;2.00;2.00;;;;;;;;5080999;28;45870;-76
2024/04/04 02:45:36;;;;;;;;;4.67;3.33;;;;;;;;5083300;28;46170;-77
2024/04/04 02:48:01;;;;;;;;;1.67;1.67;;;;;;;;5081858;28;45136;-75
2024/04/04 02:50:27;;;;;;;;;1.67;1.67;;;;;;;;5082952;28;45309;-76
2024/04/04 02:52:53;;;;;;;;;2.00;1.00;;;;;;;;5082612;28;45507;-75
2024/04/04 02:55:18;;;;;;;;;1.00;1.00;;;;;;;;5082488;28;45408;-75
2024/04/04 02:57:43;;;;;;;;;4.25;3.00;;;;;;;;5091807;27;45350;-75
2024/04/04 03:00:09;;;;;;;;;2.33;1.33;;;;;;;;5101120;27;45378;-75
2024/04/04 03:02:34;;;;;;;;;1.75;1.75;;;;;;;;5101198;27;46768;-76
2024/04/04 03:05:00;;;;;;;;;4.25;1.00;;;;;;;;5100872;27;47288;-76
2024/04/04 03:07:26;;;;;;;;;3.00;2.00;;;;;;;;5103131;27;45301;-74
2024/04/04 03:09:52;;;;;;;;;2.67;1.67;;;;;;;;5102397;27;45261;-76
2024/04/04 03:12:17;;;;;;;;;2.75;1.75;;;;;;;;5102133;27;45482;-75
2024/04/04 03:14:42;;;;;;;;;2.33;2.00;;;;;;;;5101061;27;48052;-76
2024/04/04 03:17:08;;;;;;;;;3.00;3.00;;;;;;;;5101845;27;46053;-75
2024/04/04 03:19:33;;;;;;;;;2.67;2.67;;;;;;;;5103782;27;45156;-75
2024/04/04 03:21:58;;;;;;;;;2.00;2.00;;;;;;;;5101106;27;47222;-76
2024/04/04 03:24:23;;;;;;;;;2.67;2.00;;;;;;;;5104236;27;45432;-76
2024/04/04 03:26:48;;;;;;;;;1.67;1.67;;;;;;;;5101636;27;45757;-75
2024/04/04 03:29:14;;;;;;;;;3.67;2.67;;;;;;;;5101267;27;45334;-76
2024/04/04 03:31:39;;;;;;;;;3.67;2.67;;;;;;;;5090403;27;45371;-75
2024/04/04 03:34:04;;;;;;;;;2.00;2.00;;;;;;;;5080494;28;48310;-77
2024/04/04 03:36:29;;;;;;;;;1.00;1.00;;;;;;;;5081977;28;45353;-76
2024/04/04 03:38:54;;;;;;;;;3.00;2.33;;;;;;;;5081759;28;45310;-74
2024/04/04 03:41:20;;;;;;;;;1.00;1.00;;;;;;;;5080136;28;46177;-73
2024/04/04 03:43:45;;;;;;;;;5.00;3.33;;;;;;;;5081116;28;45341;-76
2024/04/04 03:46:11;;;;;;;;;1.33;1.00;;;;;;;;5080988;28;45381;-79
2024/04/04 03:48:37;;;;;;;;;2.00;0.33;;;;;;;;5080245;28;45344;-76
2024/04/04 03:51:02;;;;;;;;;2.67;1.67;;;;;;;;5081295;28;45326;-75
2024/04/04 03:53:27;;;;;;;;;1.67;1.67;;;;;;;;5079666;28;45535;-75
2024/04/04 03:55:52;;;;;;;;;3.00;1.67;;;;;;;;5081078;28;45364;-74
2024/04/04 03:58:18;;;;;;;;;0.33;0.33;;;;;;;;5097056;27;45293;-73
2024/04/04 04:00:44;;;;;;;;;1.00;1.00;;;;;;;;5101461;27;45792;-74
2024/04/04 04:03:09;;;;;;;;;1.00;1.00;;;;;;;;5099939;27;48471;-73
2024/04/04 04:05:34;;;;;;;;;1.67;1.67;;;;;;;;5099827;27;45350;-76
2024/04/04 04:07:59;;;;;;;;;3.00;3.00;;;;;;;;5103050;27;45272;-76
2024/04/04 04:10:28;;;;;;;;;0.00;0.00;;;;;;;;5100402;27;46921;-77
2024/04/04 04:12:56;;;;;;;;;3.00;1.00;;;;;;;;5100016;27;48198;-75
2024/04/04 04:15:22;;;;;;;;;0.67;0.00;;;;;;;;5101165;27;45340;-75
2024/04/04 04:17:47;;;;;;;;;2.25;2.00;;;;;;;;5101661;27;45513;-76
2024/04/04 04:22:56;;;;;;;;;1.00;0.67;;;;;;;;5101454;27;45283;-76
2024/04/04 04:25:21;;;;;;;;;3.00;2.33;;;;;;;;5100143;27;45759;-76
2024/04/04 04:27:46;;;;;;;;;0.67;0.67;;;;;;;;5101533;27;45347;-76
2024/04/04 04:30:12;;;;;;;;;0.00;0.00;;;;;;;;5101406;27;45301;-77
2024/04/04 04:32:38;;;;;;;;;1.00;1.00;;;;;;;;5099743;27;47093;-75
2024/04/04 04:35:04;;;;;;;;;0.00;0.00;;;;;;;;5099439;27;45437;-75
2024/04/04 04:37:29;;;;;;;;;2.00;2.00;;;;;;;;5100832;27;45314;-75
2024/04/04 04:39:54;;;;;;;;;1.00;1.00;;;;;;;;5099019;27;45925;-76
2024/04/04 04:42:19;;;;;;;;;1.00;1.00;;;;;;;;5100847;27;45242;-75
2024/04/04 04:44:44;;;;;;;;;0.67;0.67;;;;;;;;5099781;27;45909;-76
2024/04/04 04:47:09;;;;;;;;;1.00;0.00;;;;;;;;5101293;27;45243;-76
2024/04/04 04:49:35;;;;;;;;;2.67;2.67;;;;;;;;5099089;27;46192;-75
2024/04/04 04:52:00;;;;;;;;;0.00;0.00;;;;;;;;5099459;27;46965;-76
2024/04/04 04:54:27;;;;;;;;;0.00;0.00;;;;;;;;5100514;27;45307;-76
2024/04/04 04:56:52;;;;;;;;;0.00;0.00;;;;;;;;5099622;27;45331;-76
2024/04/04 04:59:17;;;;;;;;;0.00;0.00;;;;;;;;5100846;27;45302;-77
2024/04/04 05:01:42;;;;;;;;;2.00;2.00;;;;;;;;5099441;27;48222;-76
2024/04/04 05:04:07;;;;;;;;;0.00;0.00;;;;;;;;5100391;27;45712;-76
2024/04/04 05:06:33;;;;;;;;;3.33;1.00;;;;;;;;5098743;27;45656;-75
2024/04/04 05:08:58;;;;;;;;;1.67;1.00;;;;;;;;5100208;27;45337;-75
2024/04/04 05:11:24;;;;;;;;;1.00;1.00;;;;;;;;5080178;28;45298;-76
2024/04/04 05:13:49;;;;;;;;;1.00;1.00;;;;;;;;5078227;28;45939;-76
2024/04/04 05:16:14;;;;;;;;;2.00;2.00;;;;;;;;5077585;28;45497;-76
2024/04/04 05:18:39;;;;;;;;;0.00;0.00;;;;;;;;5079657;28;45489;-76
2024/04/04 05:21:04;;;;;;;;;3.00;0.33;;;;;;;;5078720;28;47440;-76
2024/04/04 05:23:30;;;;;;;;;1.33;1.00;;;;;;;;5078541;28;45230;-76
2024/04/04 05:25:55;;;;;;;;;0.33;0.33;;;;;;;;5080132;28;45263;-75
2024/04/04 05:28:25;;;;;;;;;1.33;1.00;;;;;;;;5079738;28;45426;-76
2024/04/04 05:30:50;;;;;;;;;1.67;1.67;;;;;;;;5080056;28;46115;-75
2024/04/04 05:33:16;;;;;;;;;1.00;1.00;;;;;;;;5080176;28;45382;-76
2024/04/04 05:35:41;;;;;;;;;0.33;0.33;;;;;;;;5080083;28;45292;-76
2024/04/04 05:38:06;;;;;;;;;1.67;1.67;;;;;;;;5079750;28;45267;-76
2024/04/04 05:40:31;;;;;;;;;2.00;1.33;;;;;;;;5080155;28;47280;-76
2024/04/04 05:42:56;;;;;;;;;1.33;1.33;;;;;;;;5080959;28;45271;-74
2024/04/04 05:45:21;;;;;;;;;2.33;2.33;;;;;;;;5080788;28;45326;-74
2024/04/04 05:47:47;;;;;;;;;1.00;0.67;;;;;;;;5077831;28;45461;-76
2024/04/04 05:50:12;;;;;;;;;4.00;2.00;;;;;;;;5068587;28;45394;-75
2024/04/04 05:52:37;;;;;;;;;6.00;4.00;;;;;;;;5068038;28;45403;-75
2024/04/04 05:55:02;;;;;;;;;1.67;1.00;;;;;;;;5060144;28;45538;-75
2024/04/04 05:57:28;;;;;;;;;0.00;0.00;;;;;;;;5077614;27;45359;-75
2024/04/04 05:59:54;;;;;;;;;0.50;0.00;;;;;;;;5098590;27;48063;-76
2024/04/04 06:02:19;;;;;;;;;0.00;0.00;;;;;;;;5098482;27;45389;-75
2024/04/04 06:04:44;;;;;;;;;0.00;0.00;;;;;;;;5099992;27;45331;-75
2024/04/04 06:07:09;;;;;;;;;0.00;0.00;;;;;;;;5099871;27;45429;-74
2024/04/04 06:09:34;;;;;;;;;0.00;0.00;;;;;;;;5099542;27;45519;-77
2024/04/04 06:11:59;;;;;;;;;0.00;0.00;;;;;;;;5098317;27;45246;-76
2024/04/04 06:14:25;;;;;;;;;1.33;0.33;;;;;;;;5099745;27;45614;-77
2024/04/04 06:16:50;;;;;;;;;1.33;1.33;;;;;;;;5101153;27;45468;-76
2024/04/04 06:19:15;;;;;;;;;0.33;0.33;;;;;;;;5091543;27;45395;-76
2024/04/04 06:21:40;;;;;;;;;0.67;0.67;;;;;;;;5081239;28;45276;-78
2024/04/04 06:24:05;;;;;;;;;1.00;1.00;;;;;;;;5081146;28;45543;-77
2024/04/04 06:26:31;;;;;;;;;0.33;0.33;;;;;;;;5079316;28;46166;-75
2024/04/04 06:28:56;;;;;;;;;0.00;0.00;;;;;;;;5080451;28;47227;-77
2024/04/04 06:31:22;;;;;;;;;0.67;0.33;;;;;;;;5077646;27;45406;-75
2024/04/04 06:33:47;;;;;;;;;2.00;1.00;;;;;;;;5078742;27;45282;-76
2024/04/04 06:36:12;;;;;;;;;1.67;1.67;;;;;;;;5079658;27;46983;-76
2024/04/04 06:38:37;;;;;;;;;1.33;1.33;;;;;;;;5079235;27;45345;-76
2024/04/04 06:41:03;;;;;;;;;0.00;0.00;;;;;;;;5078031;27;45320;-75
2024/04/04 06:43:28;;;;;;;;;1.00;1.00;;;;;;;;5081649;28;45236;-76
2024/04/04 06:45:53;;;;;;;;;0.00;0.00;;;;;;;;5074768;27;45966;-76
2024/04/04 06:48:18;;;;;;;;;0.00;0.00;;;;;;;;5081860;28;45321;-75
2024/04/04 06:50:44;;;;;;;;;0.00;0.00;;;;;;;;5082005;27;45421;-76
2024/04/04 06:53:10;;;;;;;;;0.00;0.00;;;;;;;;5079162;28;45342;-76
2024/04/04 06:55:35;;;;;;;;;0.33;0.33;;;;;;;;5074564;27;45449;-76
2024/04/04 06:58:00;;;;;;;;;0.00;0.00;;;;;;;;5072163;27;45472;-75
2024/04/04 07:00:25;;;;;;;;;0.00;0.00;;;;;;;;5072387;27;45564;-76
2024/04/04 07:02:50;;;;;;;;;0.00;0.00;;;;;;;;5070832;28;45502;-76
2024/04/04 07:05:16;;;;;;;;;0.00;0.00;;;;;;;;5070621;27;45930;-75
2024/04/04 07:07:41;;;;;;;;;0.00;0.00;;;;;;;;5076883;28;47309;-76
2024/04/04 07:10:07;;;;;;;;;0.00;0.00;;;;;;;;5078081;27;45341;-76
2024/04/04 07:12:32;;;;;;;;;0.33;0.33;;;;;;;;5081114;28;45659;-76
2024/04/04 07:14:57;;;;;;;;;0.67;0.33;;;;;;;;5079531;27;46884;-77
2024/04/04 07:17:23;;;;;;;;;0.00;0.00;;;;;;;;5076844;28;48209;-76
2024/04/04 07:19:52;;;;;;;;;0.33;0.00;;;;;;;;5079812;27;45344;-76
2024/04/04 07:22:17;;;;;;;;;0.00;0.00;;;;;;;;5080950;28;45300;-76
2024/04/04 07:24:42;;;;;;;;;0.33;0.33;;;;;;;;5079839;27;46830;-76
2024/04/04 07:27:07;;;;;;;;;0.00;0.00;;;;;;;;5081312;27;46635;-76
2024/04/04 07:29:32;;;;;;;;;0.00;0.00;;;;;;;;5080627;28;45447;-76
2024/04/04 07:31:57;;;;;;;;;1.00;0.33;;;;;;;;5081779;28;45215;-78
2024/04/04 07:34:23;;;;;;;;;1.33;0.00;;;;;;;;5079627;27;46033;-76
2024/04/04 07:36:48;;;;;;;;;0.00;0.00;;;;;;;;5080911;28;46696;-76
2024/04/04 07:39:14;;;;;;;;;0.33;0.33;;;;;;;;5079284;27;45476;-77
2024/04/04 07:41:39;;;;;;;;;0.00;0.00;;;;;;;;5090658;28;45384;-78
2024/04/04 07:44:04;;;;;;;;;0.00;0.00;;;;;;;;5089641;28;45323;-79
2024/04/04 07:46:29;;;;;;;;;0.00;0.00;;;;;;;;5083670;27;48514;-79
2024/04/04 07:48:56;;;;;;;;;0.00;0.00;;;;;;;;5075758;27;45321;-79
2024/04/04 07:51:21;;;;;;;;;1.33;0.33;;;;;;;;5060724;28;45429;-75
2024/04/04 07:53:48;;;;;;;;;1.00;0.00;;;;;;;;5061708;28;45783;-78
2024/04/04 07:56:14;;;;;;;;;0.33;0.00;;;;;;;;5069973;28;48632;-77
2024/04/04 07:58:39;;;;;;;;;0.00;0.00;;;;;;;;5077146;27;45476;-77
2024/04/04 08:01:04;;;;;;;;;2.00;0.33;;;;;;;;5071027;28;45540;-79
2024/04/04 08:03:31;;;;;;;;;0.33;0.33;;;;;;;;5067622;28;46977;-78
2024/04/04 08:05:57;;;;;;;;;0.67;0.67;;;;;;;;5068227;28;46521;-77
2024/04/04 08:08:23;;;;;;;;;3.00;1.33;;;;;;;;5070271;28;45336;-80
2024/04/04 08:10:49;;;;;;;;;0.33;0.33;;;;;;;;5075877;28;45477;-81
2024/04/04 08:13:14;;;;;;;;;0.00;0.00;;;;;;;;5073193;28;45333;-78
2024/04/04 08:15:39;;;;;;;;;0.00;0.00;;;;;;;;5068010;28;48459;-77
2024/04/04 08:18:04;;;;;;;;;0.00;0.00;;;;;;;;5071016;28;45271;-78
2024/04/04 08:20:29;;;;;;;;;0.67;0.67;;;;;;;;5062640;28;45356;-78
2024/04/04 08:22:55;;;;;;;;;0.00;0.00;;;;;;;;5063980;28;46395;-80
2024/04/04 08:25:21;;;;;;;;;1.00;0.00;;;;;;;;5068632;28;45378;-77
2024/04/04 08:27:46;;;;;;;;;3.00;1.67;;;;;;;;5070197;28;45288;-79
2024/04/04 08:30:11;;;;;;;;;2.67;0.00;;;;;;;;5069895;28;45623;-77
2024/04/04 08:32:37;;;;;;;;;1.00;1.00;;;;;;;;5067551;28;46102;-79
2024/04/04 08:35:06;;;;;;;;;3.67;3.67;;;;;;;;5065625;28;47955;-78
2024/04/04 08:37:32;;;;;;;;;1.00;1.00;;;;;;;;5080034;28;45290;-77
2024/04/04 08:39:57;;;;;;;;;1.67;0.00;;;;;;;;5066116;28;45255;-76
2024/04/04 08:42:25;;;;;;;;;1.00;1.00;;;;;;;;5080636;28;45387;-77
2024/04/04 08:44:52;;;;;;;;;0.00;0.00;;;;;;;;5074364;28;45291;-76
2024/04/04 08:47:18;;;;;;;;;0.00;0.00;;;;;;;;5077705;28;45406;-77
2024/04/04 08:49:43;;;;;;;;;0.00;0.00;;;;;;;;5083460;28;45333;-76
2024/04/04 08:52:08;;;;;;;;;1.00;1.00;;;;;;;;5066587;28;45496;-77
2024/04/04 08:54:34;;;;;;;;;0.00;0.00;;;;;;;;5072438;28;46559;-77
2024/04/04 08:56:59;;;;;;;;;0.00;0.00;;;;;;;;5079349;27;45499;-76
2024/04/04 08:59:25;;;;;;;;;1.00;1.00;;;;;;;;5083944;27;45335;-77
2024/04/04 09:01:51;;;;;;;;;4.67;4.00;;;;;;;;5081161;28;46867;-78
2024/04/04 09:04:26;;;;;;;;;7.00;5.33;;;;;;;;5078892;28;47263;-78
2024/04/04 09:06:51;;;;;;;;;0.00;0.00;;;;;;;;5075792;28;46001;-78
2024/04/04 09:09:17;;;;;;;;;0.00;0.00;;;;;;;;5086574;28;45763;-77
2024/04/04 09:11:42;;;;;;;;;0.00;0.00;;;;;;;;5069896;27;45454;-78
2024/04/04 09:14:09;;;;;;;;;0.00;0.00;;;;;;;;5061895;28;46215;-77
2024/04/04 09:16:35;;;;;;;;;0.67;0.67;;;;;;;;5086965;27;45357;-76
2024/04/04 09:19:09;;;;;;;;;1.00;1.00;;;;;;;;5099252;27;45291;-77
2024/04/04 09:21:36;;;;;;;;;4.00;3.00;;;;;;;;5099727;27;45506;-76
2024/04/04 09:24:04;;;;;;;;;1.00;1.00;;;;;;;;5099506;27;46600;-76
2024/04/04 09:26:29;;;;;;;;;0.33;0.00;;;;;;;;5083676;27;46514;-76
2024/04/04 09:28:54;;;;;;;;;1.00;1.00;;;;;;;;5079365;27;45381;-76
2024/04/04 09:31:22;;;;;;;;;1.00;1.00;;;;;;;;5084781;27;45304;-76
2024/04/04 09:33:49;;;;;;;;;1.33;0.33;;;;;;;;5068353;28;46336;-76
2024/04/04 09:36:14;;;;;;;;;2.00;2.00;;;;;;;;5077783;27;45507;-76
2024/04/04 09:38:39;;;;;;;;;1.00;1.00;;;;;;;;5067500;28;45393;-78
2024/04/04 09:41:08;;;;;;;;;3.33;2.00;;;;;;;;5073233;27;46083;-79
2024/04/04 09:43:34;;;;;;;;;1.00;1.00;;;;;;;;5076087;28;46158;-76
2024/04/04 09:45:59;;;;;;;;;2.00;1.00;;;;;;;;5091119;27;45478;-76
2024/04/04 09:48:24;;;;;;;;;2.00;2.00;;;;;;;;5075593;28;45743;-76
2024/04/04 09:50:50;;;;;;;;;2.00;2.00;;;;;;;;5070762;27;45436;-80
2024/04/04 09:53:15;;;;;;;;;2.67;1.67;;;;;;;;5072880;28;46101;-77
2024/04/04 09:55:43;;;;;;;;;0.00;0.00;;;;;;;;5070453;27;45414;-77
2024/04/04 09:58:08;;;;;;;;;0.00;0.00;;;;;;;;5070842;27;45350;-76
2024/04/04 10:00:39;;;;;;;;;1.33;1.33;;;;;;;;5061643;27;45355;-77
2024/04/04 10:03:10;;;;;;;;;2.33;0.33;;;;;;;;5061940;28;45326;-77
2024/04/04 10:05:36;;;;;;;;;0.33;0.33;;;;;;;;5076316;27;45332;-79
2024/04/04 10:08:11;;;;;;;;;0.25;0.25;;;;;;;;5082333;27;45240;-76
2024/04/04 10:10:36;;;;;;;;;2.00;2.00;;;;;;;;5081695;28;45437;-77
2024/04/04 10:13:05;;;;;;;;;0.67;0.67;;;;;;;;5082680;28;45550;-77
2024/04/04 10:15:39;;;;;;;;;1.33;1.33;;;;;;;;5082822;28;45274;-76
2024/04/04 10:18:08;;;;;;;;;0.33;0.00;;;;;;;;5082708;28;45372;-76
2024/04/04 10:20:33;;;;;;;;;2.33;2.00;;;;;;;;5080936;28;46028;-79
2024/04/04 10:22:59;;;;;;;;;3.33;2.00;;;;;;;;5081036;28;47032;-77
2024/04/04 10:25:24;;;;;;;;;1.00;1.00;;;;;;;;5082399;28;45302;-76
2024/04/04 10:27:49;;;;;;;;;3.33;3.33;;;;;;;;5082411;28;45386;-79
2024/04/04 10:30:17;;;;;;;;;6.67;4.33;;;;;;;;5080872;28;47209;-77
2024/04/04 10:32:42;;;;;;;;;4.00;4.00;;;;;;;;5078800;28;45687;-77
2024/04/04 10:35:08;;;;;;;;;6.33;5.67;;;;;;;;5064654;28;45346;-77
2024/04/04 10:37:33;;;;;;;;;5.00;3.00;;;;;;;;5081267;28;45377;-78
2024/04/04 10:39:58;;;;;;;;;7.67;6.33;;;;;;;;5081650;28;45461;-77
2024/04/04 10:42:24;;;;;;;;;7.00;6.00;;;;;;;;5081266;28;46074;-77
2024/04/04 10:44:53;;;;;;;;;5.00;4.00;;;;;;;;5080637;28;45327;-78
2024/04/04 10:47:19;;;;;;;;;4.00;2.00;;;;;;;;5081197;28;45540;-77
2024/04/04 10:49:44;;;;;;;;;3.75;3.75;;;;;;;;5080458;28;45385;-77
2024/04/04 10:52:10;;;;;;;;;4.50;3.25;;;;;;;;5078642;28;47033;-77
2024/04/04 10:54:35;;;;;;;;;3.33;3.33;;;;;;;;5080044;28;45497;-76
2024/04/04 10:57:01;;;;;;;;;7.00;6.00;;;;;;;;5082128;27;45273;-76
2024/04/04 10:59:27;;;;;;;;;6.00;5.00;;;;;;;;5070879;27;45531;-77
2024/04/04 11:01:55;;;;;;;;;27.00;23.33;;;;;;;;5067468;27;46408;-76
2024/04/04 11:04:20;;;;;;;;;7.33;6.00;;;;;;;;5073473;28;45490;-75
2024/04/04 11:06:46;;;;;;;;;10.67;10.33;;;;;;;;5069853;27;45276;-75
2024/04/04 11:09:15;;;;;;;;;6.67;6.67;;;;;;;;5080769;28;45541;-76
2024/04/04 11:11:44;;;;;;;;;10.33;8.67;;;;;;;;5073268;27;45643;-76
2024/04/04 11:14:09;;;;;;;;;5.33;5.00;;;;;;;;5073125;28;45585;-76
2024/04/04 11:16:37;;;;;;;;;10.00;9.00;;;;;;;;5071005;28;45597;-76
2024/04/04 11:19:02;;;;;;;;;6.33;5.67;;;;;;;;5071594;27;46047;-75
2024/04/04 11:21:27;;;;;;;;;6.00;4.33;;;;;;;;5072164;28;45271;-77
2024/04/04 11:23:53;;;;;;;;;5.67;5.67;;;;;;;;5064357;27;45346;-77
2024/04/04 11:26:20;;;;;;;;;6.75;6.75;;;;;;;;5063276;28;45204;-77
2024/04/04 11:28:45;;;;;;;;;2.75;2.00;;;;;;;;5071783;27;45455;-77
2024/04/04 11:31:10;;;;;;;;;3.00;3.00;;;;;;;;5070052;28;45448;-77
2024/04/04 11:33:35;;;;;;;;;5.25;4.00;;;;;;;;5075372;27;45627;-78
2024/04/04 11:36:01;;;;;;;;;3.00;3.00;;;;;;;;5074775;27;45445;-78
2024/04/04 11:38:26;;;;;;;;;5.00;5.00;;;;;;;;5071871;28;46113;-79
2024/04/04 11:40:51;;;;;;;;;4.00;3.00;;;;;;;;5074610;28;48318;-78
2024/04/04 11:43:17;;;;;;;;;5.00;4.00;;;;;;;;5076848;27;45458;-81
2024/04/04 11:45:42;;;;;;;;;4.25;3.25;;;;;;;;5079895;28;45437;-78
2024/04/04 11:48:07;;;;;;;;;5.00;5.00;;;;;;;;5079814;27;46777;-77
2024/04/04 11:50:32;;;;;;;;;5.00;5.00;;;;;;;;5077613;28;48758;-81
2024/04/04 11:53:01;;;;;;;;;6.00;5.00;;;;;;;;5080258;27;45334;-79
2024/04/04 11:55:27;;;;;;;;;4.00;4.00;;;;;;;;5080615;27;46399;-78
2024/04/04 11:57:52;;;;;;;;;7.67;6.67;;;;;;;;5089710;27;47230;-80
2024/04/04 12:00:18;;;;;;;;;7.00;5.67;;;;;;;;5077644;28;45424;-80
2024/04/04 12:02:43;;;;;;;;;10.00;7.33;;;;;;;;5083239;28;45266;-79
2024/04/04 12:05:08;;;;;;;;;8.33;3.67;;;;;;;;5105411;27;45290;-82
2024/04/04 12:07:33;;;;;;;;;7.00;7.00;;;;;;;;5101517;27;45939;-83
2024/04/04 12:09:59;;;;;;;;;3.67;3.67;;;;;;;;5100170;27;46963;-79
2024/04/04 12:12:24;;;;;;;;;4.25;3.25;;;;;;;;5089949;27;45506;-81
2024/04/04 12:14:49;;;;;;;;;5.25;5.00;;;;;;;;5097261;27;45249;-83
2024/04/04 12:17:19;;;;;;;;;6.25;3.75;;;;;;;;5101050;27;45627;-81
2024/04/04 12:19:44;;;;;;;;;3.67;3.33;;;;;;;;5101023;27;46377;-82
2024/04/04 12:22:09;;;;;;;;;4.67;4.33;;;;;;;;5100043;27;45244;-82
2024/04/04 12:24:34;;;;;;;;;4.00;3.67;;;;;;;;5101466;27;45183;-79
2024/04/04 12:26:59;;;;;;;;;2.33;2.33;;;;;;;;5101864;27;45163;-79
2024/04/04 12:29:25;;;;;;;;;3.25;3.00;;;;;;;;5103033;27;46551;-82
2024/04/04 12:31:52;;;;;;;;;6.00;4.75;;;;;;;;5072786;27;45312;-81
2024/04/04 12:34:17;;;;;;;;;2.33;2.33;;;;;;;;5059966;28;45284;-79
2024/04/04 12:36:42;;;;;;;;;7.67;6.67;;;;;;;;5069924;27;47107;-79
2024/04/04 12:39:12;;;;;;;;;4.00;4.00;;;;;;;;5079710;28;46406;-77
2024/04/04 12:41:37;;;;;;;;;4.00;4.00;;;;;;;;5080968;27;45434;-76
2024/04/04 12:44:02;;;;;;;;;3.50;3.50;;;;;;;;5079045;28;45521;-76
2024/04/04 12:46:29;;;;;;;;;3.50;3.50;;;;;;;;5079871;27;45589;-74
2024/04/04 12:48:57;;;;;;;;;5.67;5.33;;;;;;;;5076855;28;47263;-75
2024/04/04 12:51:22;;;;;;;;;4.00;4.00;;;;;;;;5077338;27;45540;-74
2024/04/04 12:53:47;;;;;;;;;6.75;4.00;;;;;;;;5078409;28;45528;-74
2024/04/04 12:56:13;;;;;;;;;6.25;5.50;;;;;;;;5072693;27;45389;-74
2024/04/04 12:58:38;;;;;;;;;7.00;5.00;;;;;;;;5082358;27;46203;-74
2024/04/04 13:01:03;;;;;;;;;5.00;5.00;;;;;;;;5079909;28;45429;-73
2024/04/04 13:03:29;;;;;;;;;5.00;4.75;;;;;;;;5079130;28;45432;-73
2024/04/04 13:05:55;;;;;;;;;8.75;6.00;;;;;;;;5080025;28;45440;-74
2024/04/04 13:08:20;;;;;;;;;8.00;6.75;;;;;;;;5079624;28;45315;-75
2024/04/04 13:10:46;;;;;;;;;7.25;5.75;;;;;;;;5078292;28;45411;-75
2024/04/04 13:13:11;;;;;;;;;3.50;3.50;;;;;;;;5077169;28;45434;-75
2024/04/04 13:15:36;;;;;;;;;6.75;3.50;;;;;;;;5062051;28;45765;-74
2024/04/04 13:18:02;;;;;;;;;4.25;4.25;;;;;;;;5058140;28;47193;-74
2024/04/04 13:20:27;;;;;;;;;3.00;3.00;;;;;;;;5059343;28;45441;-74
2024/04/04 13:22:52;;;;;;;;;2.00;0.75;;;;;;;;5058108;28;45412;-74
2024/04/04 13:25:17;;;;;;;;;1.50;1.50;;;;;;;;5059029;28;45954;-77
2024/04/04 13:27:42;;;;;;;;;3.00;3.00;;;;;;;;5059005;28;45495;-74
2024/04/04 13:30:10;;;;;;;;;3.75;3.75;;;;;;;;5059158;28;45295;-75
2024/04/04 13:32:35;;;;;;;;;2.75;2.75;;;;;;;;5059789;28;45254;-75
2024/04/04 13:35:00;;;;;;;;;3.75;3.75;;;;;;;;5060372;28;47003;-75
2024/04/04 13:37:25;;;;;;;;;2.75;2.00;;;;;;;;5058120;28;48944;-75
2024/04/04 13:39:52;;;;;;;;;2.75;2.75;;;;;;;;5058940;28;45235;-75
2024/04/04 13:42:18;;;;;;;;;3.75;3.75;;;;;;;;5058973;28;45216;-75
2024/04/04 13:44:43;;;;;;;;;3.25;3.25;;;;;;;;5069186;27;45437;-75
2024/04/04 13:47:08;;;;;;;;;2.00;2.00;;;;;;;;5073575;28;45238;-77
2024/04/04 13:49:33;;;;;;;;;4.50;4.00;;;;;;;;5077487;27;45266;-76
2024/04/04 13:51:59;;;;;;;;;3.00;2.25;;;;;;;;5076285;28;45552;-75
2024/04/04 13:54:25;;;;;;;;;2.75;2.75;;;;;;;;5078921;27;45523;-75
2024/04/04 13:56:51;;;;;;;;;6.75;5.25;;;;;;;;5077741;27;46547;-76
2024/04/04 13:59:16;;;;;;;;;3.25;3.25;;;;;;;;5078072;27;45326;-76
2024/04/04 14:01:42;;;;;;;;;4.00;3.25;;;;;;;;5080060;28;45366;-75
2024/04/04 14:04:07;;;;;;;;;1.75;1.75;;;;;;;;5078883;27;45612;-76
2024/04/04 14:06:33;;;;;;;;;4.00;2.50;;;;;;;;5069723;28;46285;-75
2024/04/04 14:08:58;;;;;;;;;2.25;2.25;;;;;;;;5077079;27;45420;-77
2024/04/04 14:11:24;;;;;;;;;1.50;1.25;;;;;;;;5079411;28;45561;-76
2024/04/04 14:13:51;;;;;;;;;4.00;4.00;;;;;;;;5074514;27;47354;-76
2024/04/04 14:16:16;;;;;;;;;4.00;4.00;;;;;;;;5076494;28;45355;-76
2024/04/04 14:18:42;;;;;;;;;3.50;3.50;;;;;;;;5089620;27;45227;-76
2024/04/04 14:21:07;;;;;;;;;3.25;3.00;;;;;;;;5099930;27;45321;-75
2024/04/04 14:23:32;;;;;;;;;3.75;3.25;;;;;;;;5079582;27;45437;-76
2024/04/04 14:25:57;;;;;;;;;2.50;2.25;;;;;;;;5077121;28;47896;-79
2024/04/04 14:28:23;;;;;;;;;1.00;1.00;;;;;;;;5077607;28;45272;-76
2024/04/04 14:30:48;;;;;;;;;3.00;3.00;;;;;;;;5079220;28;45281;-77
2024/04/04 14:33:13;;;;;;;;;2.00;2.00;;;;;;;;5079298;28;45285;-76
2024/04/04 14:35:38;;;;;;;;;3.50;3.50;;;;;;;;5078605;28;46289;-76